sensor_id;sensor_type;location;lat;lon;timestamp;P1;durP1;ratioP1;P2;durP2;ratioP2
42084;SDS011;27746;52.228;20.890;2022-09-09T00:00:44;14.80;;;5.80;;
42084;SDS011;27746;52.228;20.890;2022-09-09T00:03:16;11.85;;;5.15;;
42084;SDS011;27746;52.228;20.890;2022-09-09T00:05:48;11.98;;;5.78;;
42084;SDS011;27746;52.228;20.890;2022-09-09T00:08:23;10.95;;;5.70;;
42084;SDS011;27746;52.228;20.890;2022-09-09T00:11:04;12.23;;;5.07;;
42084;SDS011;27746;52.228;20.890;2022-09-09T00:13:32;10.05;;;5.25;;
42084;SDS011;27746;52.228;20.890;2022-09-09T00:16:03;9.40;;;5.45;;
42084;SDS011;27746;52.228;20.890;2022-09-09T00:18:38;9.15;;;5.22;;
42084;SDS011;27746;52.228;20.890;2022-09-09T00:21:11;11.90;;;6.13;;
42084;SDS011;27746;52.228;20.890;2022-09-09T00:23:43;9.15;;;5.32;;
42084;SDS011;27746;52.228;20.890;2022-09-09T00:26:16;11.02;;;6.57;;
42084;SDS011;27746;52.228;20.890;2022-09-09T00:28:50;13.77;;;5.97;;
42084;SDS011;27746;52.228;20.890;2022-09-09T00:31:24;10.00;;;5.50;;
42084;SDS011;27746;52.228;20.890;2022-09-09T00:33:54;11.82;;;5.93;;
42084;SDS011;27746;52.228;20.890;2022-09-09T00:36:30;10.95;;;6.50;;
42084;SDS011;27746;52.228;20.890;2022-09-09T00:39:00;11.23;;;6.25;;
42084;SDS011;27746;52.228;20.890;2022-09-09T00:41:30;11.27;;;6.30;;
42084;SDS011;27746;52.228;20.890;2022-09-09T00:44:11;10.70;;;5.97;;
42084;SDS011;27746;52.228;20.890;2022-09-09T00:49:41;13.75;;;6.18;;
42084;SDS011;27746;52.228;20.890;2022-09-09T00:52:21;12.73;;;6.47;;
42084;SDS011;27746;52.228;20.890;2022-09-09T00:54:57;13.90;;;6.85;;
42084;SDS011;27746;52.228;20.890;2022-09-09T00:57:31;12.90;;;6.53;;
42084;SDS011;27746;52.228;20.890;2022-09-09T01:00:14;15.20;;;7.07;;
42084;SDS011;27746;52.228;20.890;2022-09-09T01:02:46;13.52;;;6.70;;
42084;SDS011;27746;52.228;20.890;2022-09-09T01:05:33;13.70;;;7.22;;
42084;SDS011;27746;52.228;20.890;2022-09-09T01:08:10;13.43;;;7.50;;
42084;SDS011;27746;52.228;20.890;2022-09-09T01:10:47;14.32;;;7.07;;
42084;SDS011;27746;52.228;20.890;2022-09-09T01:13:20;11.52;;;6.82;;
42084;SDS011;27746;52.228;20.890;2022-09-09T01:18:19;12.18;;;6.90;;
42084;SDS011;27746;52.228;20.890;2022-09-09T01:20:53;11.73;;;7.10;;
42084;SDS011;27746;52.228;20.890;2022-09-09T01:23:30;12.63;;;7.18;;
42084;SDS011;27746;52.228;20.890;2022-09-09T01:28:56;13.77;;;7.90;;
42084;SDS011;27746;52.228;20.890;2022-09-09T01:31:26;14.85;;;8.13;;
42084;SDS011;27746;52.228;20.890;2022-09-09T01:33:56;18.42;;;8.05;;
42084;SDS011;27746;52.228;20.890;2022-09-09T01:36:24;12.10;;;7.20;;
42084;SDS011;27746;52.228;20.890;2022-09-09T01:38:58;12.88;;;7.78;;
42084;SDS011;27746;52.228;20.890;2022-09-09T01:41:25;13.43;;;7.32;;
42084;SDS011;27746;52.228;20.890;2022-09-09T01:43:54;15.45;;;8.57;;
42084;SDS011;27746;52.228;20.890;2022-09-09T01:46:21;12.02;;;7.55;;
42084;SDS011;27746;52.228;20.890;2022-09-09T01:48:49;12.95;;;7.35;;
42084;SDS011;27746;52.228;20.890;2022-09-09T01:51:17;11.93;;;6.95;;
42084;SDS011;27746;52.228;20.890;2022-09-09T01:53:44;17.50;;;7.88;;
42084;SDS011;27746;52.228;20.890;2022-09-09T01:56:15;13.98;;;7.68;;
42084;SDS011;27746;52.228;20.890;2022-09-09T02:01:44;13.55;;;7.68;;
42084;SDS011;27746;52.228;20.890;2022-09-09T02:04:22;13.20;;;7.60;;
42084;SDS011;27746;52.228;20.890;2022-09-09T02:06:57;14.57;;;8.43;;
42084;SDS011;27746;52.228;20.890;2022-09-09T02:09:24;16.92;;;8.43;;
42084;SDS011;27746;52.228;20.890;2022-09-09T02:11:54;13.38;;;8.00;;
42084;SDS011;27746;52.228;20.890;2022-09-09T02:14:30;18.23;;;9.60;;
42084;SDS011;27746;52.228;20.890;2022-09-09T02:17:03;15.63;;;8.23;;
42084;SDS011;27746;52.228;20.890;2022-09-09T02:19:36;15.35;;;9.07;;
42084;SDS011;27746;52.228;20.890;2022-09-09T02:22:07;15.68;;;8.55;;
42084;SDS011;27746;52.228;20.890;2022-09-09T02:24:35;17.52;;;9.88;;
42084;SDS011;27746;52.228;20.890;2022-09-09T02:27:03;14.45;;;8.27;;
42084;SDS011;27746;52.228;20.890;2022-09-09T02:29:36;13.63;;;8.10;;
42084;SDS011;27746;52.228;20.890;2022-09-09T02:32:07;16.83;;;8.63;;
42084;SDS011;27746;52.228;20.890;2022-09-09T02:34:39;25.05;;;9.93;;
42084;SDS011;27746;52.228;20.890;2022-09-09T02:37:10;16.48;;;8.73;;
42084;SDS011;27746;52.228;20.890;2022-09-09T02:39:38;14.20;;;8.65;;
42084;SDS011;27746;52.228;20.890;2022-09-09T02:42:05;15.23;;;8.85;;
42084;SDS011;27746;52.228;20.890;2022-09-09T02:44:32;18.30;;;8.48;;
42084;SDS011;27746;52.228;20.890;2022-09-09T02:47:05;16.65;;;9.07;;
42084;SDS011;27746;52.228;20.890;2022-09-09T02:49:40;16.20;;;8.90;;
42084;SDS011;27746;52.228;20.890;2022-09-09T02:52:18;15.27;;;8.95;;
42084;SDS011;27746;52.228;20.890;2022-09-09T02:54:49;15.73;;;9.93;;
42084;SDS011;27746;52.228;20.890;2022-09-09T02:57:22;16.08;;;8.68;;
42084;SDS011;27746;52.228;20.890;2022-09-09T02:59:52;17.52;;;9.05;;
42084;SDS011;27746;52.228;20.890;2022-09-09T03:02:23;16.05;;;9.43;;
42084;SDS011;27746;52.228;20.890;2022-09-09T03:04:50;16.13;;;9.48;;
42084;SDS011;27746;52.228;20.890;2022-09-09T03:07:17;14.98;;;8.35;;
42084;SDS011;27746;52.228;20.890;2022-09-09T03:09:44;15.25;;;9.65;;
42084;SDS011;27746;52.228;20.890;2022-09-09T03:12:11;19.05;;;9.50;;
42084;SDS011;27746;52.228;20.890;2022-09-09T03:14:38;14.02;;;8.20;;
42084;SDS011;27746;52.228;20.890;2022-09-09T03:17:05;13.77;;;7.95;;
42084;SDS011;27746;52.228;20.890;2022-09-09T03:19:35;13.85;;;7.72;;
42084;SDS011;27746;52.228;20.890;2022-09-09T03:22:02;10.43;;;7.07;;
42084;SDS011;27746;52.228;20.890;2022-09-09T03:24:30;12.70;;;7.75;;
42084;SDS011;27746;52.228;20.890;2022-09-09T03:26:57;15.63;;;7.60;;
42084;SDS011;27746;52.228;20.890;2022-09-09T03:29:23;11.25;;;7.22;;
42084;SDS011;27746;52.228;20.890;2022-09-09T03:31:50;12.88;;;7.80;;
42084;SDS011;27746;52.228;20.890;2022-09-09T03:34:17;14.55;;;8.18;;
42084;SDS011;27746;52.228;20.890;2022-09-09T03:36:45;13.27;;;7.38;;
42084;SDS011;27746;52.228;20.890;2022-09-09T03:39:13;11.95;;;6.93;;
42084;SDS011;27746;52.228;20.890;2022-09-09T03:41:40;11.50;;;7.57;;
42084;SDS011;27746;52.228;20.890;2022-09-09T03:44:07;14.45;;;7.68;;
42084;SDS011;27746;52.228;20.890;2022-09-09T03:46:33;13.60;;;8.40;;
42084;SDS011;27746;52.228;20.890;2022-09-09T03:49:00;12.38;;;6.93;;
42084;SDS011;27746;52.228;20.890;2022-09-09T03:51:27;11.90;;;7.30;;
42084;SDS011;27746;52.228;20.890;2022-09-09T03:53:55;12.05;;;7.63;;
42084;SDS011;27746;52.228;20.890;2022-09-09T03:56:23;14.18;;;8.65;;
42084;SDS011;27746;52.228;20.890;2022-09-09T03:58:51;14.02;;;7.22;;
42084;SDS011;27746;52.228;20.890;2022-09-09T04:01:18;10.05;;;7.20;;
42084;SDS011;27746;52.228;20.890;2022-09-09T04:03:44;9.23;;;6.72;;
42084;SDS011;27746;52.228;20.890;2022-09-09T04:06:11;12.18;;;6.65;;
42084;SDS011;27746;52.228;20.890;2022-09-09T04:08:40;12.40;;;7.97;;
42084;SDS011;27746;52.228;20.890;2022-09-09T04:11:08;12.35;;;7.57;;
42084;SDS011;27746;52.228;20.890;2022-09-09T04:13:35;11.02;;;7.13;;
42084;SDS011;27746;52.228;20.890;2022-09-09T04:16:04;12.52;;;7.43;;
42084;SDS011;27746;52.228;20.890;2022-09-09T04:18:31;10.95;;;6.30;;
42084;SDS011;27746;52.228;20.890;2022-09-09T04:20:59;12.52;;;7.45;;
42084;SDS011;27746;52.228;20.890;2022-09-09T04:23:27;11.32;;;7.85;;
42084;SDS011;27746;52.228;20.890;2022-09-09T04:25:55;11.27;;;6.95;;
42084;SDS011;27746;52.228;20.890;2022-09-09T04:28:25;10.52;;;7.18;;
42084;SDS011;27746;52.228;20.890;2022-09-09T04:30:53;10.10;;;7.15;;
42084;SDS011;27746;52.228;20.890;2022-09-09T04:33:20;9.93;;;6.63;;
42084;SDS011;27746;52.228;20.890;2022-09-09T04:35:47;10.48;;;6.68;;
42084;SDS011;27746;52.228;20.890;2022-09-09T04:38:15;10.13;;;7.15;;
42084;SDS011;27746;52.228;20.890;2022-09-09T04:40:43;10.48;;;7.28;;
42084;SDS011;27746;52.228;20.890;2022-09-09T04:43:10;10.43;;;6.90;;
42084;SDS011;27746;52.228;20.890;2022-09-09T04:45:38;11.23;;;7.15;;
42084;SDS011;27746;52.228;20.890;2022-09-09T04:48:05;10.77;;;6.90;;
42084;SDS011;27746;52.228;20.890;2022-09-09T04:50:32;10.38;;;6.88;;
42084;SDS011;27746;52.228;20.890;2022-09-09T04:53:00;11.15;;;7.43;;
42084;SDS011;27746;52.228;20.890;2022-09-09T04:55:27;11.57;;;7.13;;
42084;SDS011;27746;52.228;20.890;2022-09-09T04:57:54;12.50;;;7.25;;
42084;SDS011;27746;52.228;20.890;2022-09-09T05:00:22;12.38;;;7.10;;
42084;SDS011;27746;52.228;20.890;2022-09-09T05:02:50;9.77;;;6.53;;
42084;SDS011;27746;52.228;20.890;2022-09-09T05:05:17;13.18;;;7.35;;
42084;SDS011;27746;52.228;20.890;2022-09-09T05:07:44;11.45;;;7.03;;
42084;SDS011;27746;52.228;20.890;2022-09-09T05:10:12;11.68;;;8.30;;
42084;SDS011;27746;52.228;20.890;2022-09-09T05:12:40;10.57;;;7.55;;
42084;SDS011;27746;52.228;20.890;2022-09-09T05:15:07;10.50;;;6.25;;
42084;SDS011;27746;52.228;20.890;2022-09-09T05:17:34;11.43;;;6.93;;
42084;SDS011;27746;52.228;20.890;2022-09-09T05:20:03;11.52;;;7.07;;
42084;SDS011;27746;52.228;20.890;2022-09-09T05:22:30;11.15;;;6.80;;
42084;SDS011;27746;52.228;20.890;2022-09-09T05:24:57;10.82;;;7.65;;
42084;SDS011;27746;52.228;20.890;2022-09-09T05:27:24;8.85;;;6.57;;
42084;SDS011;27746;52.228;20.890;2022-09-09T05:29:50;12.02;;;6.80;;
42084;SDS011;27746;52.228;20.890;2022-09-09T05:32:17;10.55;;;6.45;;
42084;SDS011;27746;52.228;20.890;2022-09-09T05:34:44;11.05;;;6.53;;
42084;SDS011;27746;52.228;20.890;2022-09-09T05:37:13;9.52;;;6.45;;
42084;SDS011;27746;52.228;20.890;2022-09-09T05:39:39;13.63;;;6.72;;
42084;SDS011;27746;52.228;20.890;2022-09-09T05:42:06;8.98;;;6.03;;
42084;SDS011;27746;52.228;20.890;2022-09-09T05:44:33;12.20;;;7.88;;
42084;SDS011;27746;52.228;20.890;2022-09-09T05:47:00;12.85;;;6.80;;
42084;SDS011;27746;52.228;20.890;2022-09-09T05:49:27;13.68;;;6.95;;
42084;SDS011;27746;52.228;20.890;2022-09-09T05:51:54;9.68;;;6.97;;
42084;SDS011;27746;52.228;20.890;2022-09-09T05:54:22;9.95;;;6.15;;
42084;SDS011;27746;52.228;20.890;2022-09-09T05:56:48;11.48;;;6.65;;
42084;SDS011;27746;52.228;20.890;2022-09-09T05:59:17;10.38;;;7.32;;
42084;SDS011;27746;52.228;20.890;2022-09-09T06:01:45;23.55;;;11.13;;
42084;SDS011;27746;52.228;20.890;2022-09-09T06:04:12;42.75;;;14.95;;
42084;SDS011;27746;52.228;20.890;2022-09-09T06:06:39;11.10;;;7.68;;
42084;SDS011;27746;52.228;20.890;2022-09-09T06:09:07;12.90;;;6.90;;
42084;SDS011;27746;52.228;20.890;2022-09-09T06:11:37;9.75;;;7.20;;
42084;SDS011;27746;52.228;20.890;2022-09-09T06:14:05;10.20;;;6.95;;
42084;SDS011;27746;52.228;20.890;2022-09-09T06:16:33;12.40;;;7.28;;
42084;SDS011;27746;52.228;20.890;2022-09-09T06:19:02;10.75;;;6.70;;
42084;SDS011;27746;52.228;20.890;2022-09-09T06:21:30;10.25;;;6.65;;
42084;SDS011;27746;52.228;20.890;2022-09-09T06:23:58;9.05;;;6.90;;
42084;SDS011;27746;52.228;20.890;2022-09-09T06:26:26;9.35;;;6.97;;
42084;SDS011;27746;52.228;20.890;2022-09-09T06:28:55;8.98;;;6.53;;
42084;SDS011;27746;52.228;20.890;2022-09-09T06:31:24;13.65;;;8.10;;
42084;SDS011;27746;52.228;20.890;2022-09-09T06:33:52;11.88;;;7.72;;
42084;SDS011;27746;52.228;20.890;2022-09-09T06:36:20;14.30;;;8.45;;
42084;SDS011;27746;52.228;20.890;2022-09-09T06:38:50;11.20;;;7.20;;
42084;SDS011;27746;52.228;20.890;2022-09-09T06:41:17;12.07;;;6.90;;
42084;SDS011;27746;52.228;20.890;2022-09-09T06:43:45;9.85;;;7.28;;
42084;SDS011;27746;52.228;20.890;2022-09-09T06:46:14;11.00;;;7.60;;
42084;SDS011;27746;52.228;20.890;2022-09-09T06:48:42;12.05;;;7.53;;
42084;SDS011;27746;52.228;20.890;2022-09-09T06:51:11;13.15;;;8.20;;
42084;SDS011;27746;52.228;20.890;2022-09-09T06:53:39;13.30;;;8.10;;
42084;SDS011;27746;52.228;20.890;2022-09-09T06:56:17;11.77;;;7.65;;
42084;SDS011;27746;52.228;20.890;2022-09-09T06:58:47;13.70;;;8.13;;
42084;SDS011;27746;52.228;20.890;2022-09-09T07:01:15;15.38;;;8.32;;
42084;SDS011;27746;52.228;20.890;2022-09-09T07:03:45;12.65;;;8.88;;
42084;SDS011;27746;52.228;20.890;2022-09-09T07:06:15;13.05;;;8.80;;
42084;SDS011;27746;52.228;20.890;2022-09-09T07:08:44;14.05;;;8.43;;
42084;SDS011;27746;52.228;20.890;2022-09-09T07:11:14;14.90;;;8.77;;
42084;SDS011;27746;52.228;20.890;2022-09-09T07:13:42;15.50;;;9.43;;
42084;SDS011;27746;52.228;20.890;2022-09-09T07:16:09;15.57;;;8.90;;
42084;SDS011;27746;52.228;20.890;2022-09-09T07:18:39;17.48;;;9.73;;
42084;SDS011;27746;52.228;20.890;2022-09-09T07:21:07;12.05;;;9.05;;
42084;SDS011;27746;52.228;20.890;2022-09-09T07:23:35;19.75;;;10.05;;
42084;SDS011;27746;52.228;20.890;2022-09-09T07:26:02;15.30;;;9.90;;
42084;SDS011;27746;52.228;20.890;2022-09-09T07:28:33;14.15;;;9.63;;
42084;SDS011;27746;52.228;20.890;2022-09-09T07:31:00;26.52;;;10.60;;
42084;SDS011;27746;52.228;20.890;2022-09-09T07:33:28;17.70;;;10.55;;
42084;SDS011;27746;52.228;20.890;2022-09-09T07:36:02;14.80;;;10.43;;
42084;SDS011;27746;52.228;20.890;2022-09-09T07:38:31;15.80;;;9.90;;
42084;SDS011;27746;52.228;20.890;2022-09-09T07:41:02;15.85;;;10.13;;
42084;SDS011;27746;52.228;20.890;2022-09-09T07:43:32;14.60;;;10.80;;
42084;SDS011;27746;52.228;20.890;2022-09-09T07:45:59;13.82;;;9.98;;
42084;SDS011;27746;52.228;20.890;2022-09-09T07:48:27;17.58;;;10.68;;
42084;SDS011;27746;52.228;20.890;2022-09-09T07:51:03;17.80;;;9.25;;
42084;SDS011;27746;52.228;20.890;2022-09-09T07:53:32;16.25;;;10.85;;
42084;SDS011;27746;52.228;20.890;2022-09-09T07:56:02;16.98;;;12.05;;
42084;SDS011;27746;52.228;20.890;2022-09-09T07:58:30;18.52;;;10.80;;
42084;SDS011;27746;52.228;20.890;2022-09-09T08:00:58;16.25;;;11.10;;
42084;SDS011;27746;52.228;20.890;2022-09-09T08:03:25;18.77;;;10.55;;
42084;SDS011;27746;52.228;20.890;2022-09-09T08:05:51;18.30;;;11.25;;
42084;SDS011;27746;52.228;20.890;2022-09-09T08:08:19;18.00;;;11.80;;
42084;SDS011;27746;52.228;20.890;2022-09-09T08:10:46;16.95;;;11.75;;
42084;SDS011;27746;52.228;20.890;2022-09-09T08:13:13;19.00;;;11.40;;
42084;SDS011;27746;52.228;20.890;2022-09-09T08:15:40;17.55;;;12.30;;
42084;SDS011;27746;52.228;20.890;2022-09-09T08:18:08;18.75;;;12.27;;
42084;SDS011;27746;52.228;20.890;2022-09-09T08:20:35;18.30;;;11.50;;
42084;SDS011;27746;52.228;20.890;2022-09-09T08:23:02;19.77;;;11.48;;
42084;SDS011;27746;52.228;20.890;2022-09-09T08:25:31;17.70;;;13.00;;
42084;SDS011;27746;52.228;20.890;2022-09-09T08:27:59;20.23;;;12.13;;
42084;SDS011;27746;52.228;20.890;2022-09-09T08:30:26;18.77;;;12.32;;
42084;SDS011;27746;52.228;20.890;2022-09-09T08:32:53;22.98;;;13.82;;
42084;SDS011;27746;52.228;20.890;2022-09-09T08:35:20;19.77;;;13.48;;
42084;SDS011;27746;52.228;20.890;2022-09-09T08:37:46;22.92;;;14.00;;
42084;SDS011;27746;52.228;20.890;2022-09-09T08:40:17;22.25;;;14.07;;
42084;SDS011;27746;52.228;20.890;2022-09-09T08:42:55;21.65;;;12.95;;
42084;SDS011;27746;52.228;20.890;2022-09-09T08:45:28;21.58;;;13.50;;
42084;SDS011;27746;52.228;20.890;2022-09-09T08:48:04;21.80;;;13.75;;
42084;SDS011;27746;52.228;20.890;2022-09-09T08:50:43;22.13;;;13.52;;
42084;SDS011;27746;52.228;20.890;2022-09-09T08:53:15;21.13;;;13.52;;
42084;SDS011;27746;52.228;20.890;2022-09-09T08:55:45;23.38;;;14.82;;
42084;SDS011;27746;52.228;20.890;2022-09-09T08:58:16;22.95;;;14.70;;
42084;SDS011;27746;52.228;20.890;2022-09-09T09:00:57;23.95;;;15.45;;
42084;SDS011;27746;52.228;20.890;2022-09-09T09:03:33;27.67;;;16.45;;
42084;SDS011;27746;52.228;20.890;2022-09-09T09:06:09;28.48;;;16.88;;
42084;SDS011;27746;52.228;20.890;2022-09-09T09:08:50;23.58;;;15.40;;
42084;SDS011;27746;52.228;20.890;2022-09-09T09:11:21;29.77;;;16.88;;
42084;SDS011;27746;52.228;20.890;2022-09-09T09:13:50;26.65;;;16.48;;
42084;SDS011;27746;52.228;20.890;2022-09-09T09:16:22;30.23;;;16.45;;
42084;SDS011;27746;52.228;20.890;2022-09-09T09:18:53;26.65;;;17.13;;
42084;SDS011;27746;52.228;20.890;2022-09-09T09:21:21;24.88;;;16.83;;
42084;SDS011;27746;52.228;20.890;2022-09-09T09:23:59;26.48;;;16.73;;
42084;SDS011;27746;52.228;20.890;2022-09-09T09:26:29;27.85;;;16.35;;
42084;SDS011;27746;52.228;20.890;2022-09-09T09:29:00;34.08;;;20.40;;
42084;SDS011;27746;52.228;20.890;2022-09-09T09:31:36;30.10;;;18.90;;
42084;SDS011;27746;52.228;20.890;2022-09-09T09:34:03;33.67;;;18.88;;
42084;SDS011;27746;52.228;20.890;2022-09-09T09:36:34;26.90;;;18.02;;
42084;SDS011;27746;52.228;20.890;2022-09-09T09:39:04;31.73;;;18.40;;
42084;SDS011;27746;52.228;20.890;2022-09-09T09:41:32;24.40;;;17.17;;
42084;SDS011;27746;52.228;20.890;2022-09-09T09:44:03;32.60;;;19.23;;
42084;SDS011;27746;52.228;20.890;2022-09-09T09:46:31;30.42;;;19.17;;
42084;SDS011;27746;52.228;20.890;2022-09-09T09:48:59;28.33;;;17.92;;
42084;SDS011;27746;52.228;20.890;2022-09-09T09:51:28;31.88;;;19.42;;
42084;SDS011;27746;52.228;20.890;2022-09-09T09:54:06;31.42;;;18.83;;
42084;SDS011;27746;52.228;20.890;2022-09-09T09:56:44;29.98;;;19.30;;
42084;SDS011;27746;52.228;20.890;2022-09-09T09:59:20;32.13;;;20.08;;
42084;SDS011;27746;52.228;20.890;2022-09-09T10:01:48;34.90;;;20.20;;
42084;SDS011;27746;52.228;20.890;2022-09-09T10:04:16;35.78;;;20.55;;
42084;SDS011;27746;52.228;20.890;2022-09-09T10:06:45;34.03;;;18.65;;
42084;SDS011;27746;52.228;20.890;2022-09-09T10:09:20;32.90;;;19.80;;
42084;SDS011;27746;52.228;20.890;2022-09-09T10:11:50;33.60;;;19.60;;
42084;SDS011;27746;52.228;20.890;2022-09-09T10:14:25;34.30;;;18.85;;
42084;SDS011;27746;52.228;20.890;2022-09-09T10:17:10;36.25;;;19.77;;
42084;SDS011;27746;52.228;20.890;2022-09-09T10:19:48;38.75;;;19.92;;
42084;SDS011;27746;52.228;20.890;2022-09-09T10:22:25;30.55;;;18.63;;
42084;SDS011;27746;52.228;20.890;2022-09-09T10:24:57;30.40;;;19.08;;
42084;SDS011;27746;52.228;20.890;2022-09-09T10:27:43;36.38;;;20.83;;
42084;SDS011;27746;52.228;20.890;2022-09-09T10:30:23;35.72;;;20.20;;
42084;SDS011;27746;52.228;20.890;2022-09-09T10:32:55;33.47;;;20.38;;
42084;SDS011;27746;52.228;20.890;2022-09-09T10:35:29;33.22;;;19.52;;
42084;SDS011;27746;52.228;20.890;2022-09-09T10:41:07;33.58;;;19.90;;
42084;SDS011;27746;52.228;20.890;2022-09-09T10:43:48;33.20;;;19.70;;
42084;SDS011;27746;52.228;20.890;2022-09-09T10:46:32;30.52;;;17.58;;
42084;SDS011;27746;52.228;20.890;2022-09-09T10:49:09;32.50;;;20.70;;
42084;SDS011;27746;52.228;20.890;2022-09-09T10:51:49;36.00;;;21.02;;
42084;SDS011;27746;52.228;20.890;2022-09-09T10:54:25;37.70;;;22.38;;
42084;SDS011;27746;52.228;20.890;2022-09-09T10:57:00;41.85;;;22.30;;
42084;SDS011;27746;52.228;20.890;2022-09-09T11:02:03;39.33;;;22.05;;
42084;SDS011;27746;52.228;20.890;2022-09-09T11:04:41;36.90;;;23.10;;
42084;SDS011;27746;52.228;20.890;2022-09-09T11:07:12;46.05;;;24.17;;
42084;SDS011;27746;52.228;20.890;2022-09-09T11:09:45;40.80;;;23.27;;
42084;SDS011;27746;52.228;20.890;2022-09-09T11:12:17;41.50;;;22.90;;
42084;SDS011;27746;52.228;20.890;2022-09-09T11:14:45;39.30;;;23.33;;
42084;SDS011;27746;52.228;20.890;2022-09-09T11:17:18;41.90;;;23.63;;
42084;SDS011;27746;52.228;20.890;2022-09-09T11:19:49;40.95;;;23.67;;
42084;SDS011;27746;52.228;20.890;2022-09-09T11:22:20;41.42;;;21.77;;
42084;SDS011;27746;52.228;20.890;2022-09-09T11:24:54;40.38;;;24.15;;
42084;SDS011;27746;52.228;20.890;2022-09-09T11:27:27;47.00;;;24.52;;
42084;SDS011;27746;52.228;20.890;2022-09-09T11:30:02;40.57;;;22.07;;
42084;SDS011;27746;52.228;20.890;2022-09-09T11:35:55;42.42;;;22.65;;
42084;SDS011;27746;52.228;20.890;2022-09-09T11:38:32;43.22;;;23.20;;
42084;SDS011;27746;52.228;20.890;2022-09-09T11:41:10;43.38;;;23.65;;
42084;SDS011;27746;52.228;20.890;2022-09-09T11:43:39;39.40;;;24.38;;
42084;SDS011;27746;52.228;20.890;2022-09-09T11:46:07;46.53;;;25.05;;
42084;SDS011;27746;52.228;20.890;2022-09-09T11:48:37;47.63;;;25.33;;
42084;SDS011;27746;52.228;20.890;2022-09-09T11:51:08;42.42;;;23.50;;
42084;SDS011;27746;52.228;20.890;2022-09-09T11:53:47;49.78;;;25.33;;
42084;SDS011;27746;52.228;20.890;2022-09-09T11:56:23;46.90;;;25.15;;
42084;SDS011;27746;52.228;20.890;2022-09-09T11:58:56;45.05;;;24.83;;
42084;SDS011;27746;52.228;20.890;2022-09-09T12:01:36;48.58;;;27.55;;
42084;SDS011;27746;52.228;20.890;2022-09-09T12:04:11;43.60;;;24.38;;
42084;SDS011;27746;52.228;20.890;2022-09-09T12:06:56;40.25;;;24.25;;
42084;SDS011;27746;52.228;20.890;2022-09-09T12:09:30;47.80;;;24.05;;
42084;SDS011;27746;52.228;20.890;2022-09-09T12:12:23;48.42;;;26.42;;
42084;SDS011;27746;52.228;20.890;2022-09-09T12:14:56;46.33;;;25.40;;
42084;SDS011;27746;52.228;20.890;2022-09-09T12:17:25;50.53;;;27.70;;
42084;SDS011;27746;52.228;20.890;2022-09-09T12:20:06;54.00;;;27.48;;
42084;SDS011;27746;52.228;20.890;2022-09-09T12:25:12;49.13;;;26.63;;
42084;SDS011;27746;52.228;20.890;2022-09-09T12:27:47;58.85;;;28.70;;
42084;SDS011;27746;52.228;20.890;2022-09-09T12:30:27;50.58;;;26.92;;
42084;SDS011;27746;52.228;20.890;2022-09-09T12:33:01;59.90;;;29.13;;
42084;SDS011;27746;52.228;20.890;2022-09-09T12:35:37;54.72;;;30.73;;
42084;SDS011;27746;52.228;20.890;2022-09-09T12:38:05;53.08;;;29.23;;
42084;SDS011;27746;52.228;20.890;2022-09-09T12:40:37;67.90;;;30.70;;
42084;SDS011;27746;52.228;20.890;2022-09-09T12:43:15;57.15;;;32.80;;
42084;SDS011;27746;52.228;20.890;2022-09-09T12:45:44;61.42;;;30.27;;
42084;SDS011;27746;52.228;20.890;2022-09-09T12:48:12;57.17;;;29.52;;
42084;SDS011;27746;52.228;20.890;2022-09-09T12:50:45;57.53;;;29.40;;
42084;SDS011;27746;52.228;20.890;2022-09-09T12:53:15;55.13;;;27.80;;
42084;SDS011;27746;52.228;20.890;2022-09-09T12:55:49;55.63;;;28.00;;
42084;SDS011;27746;52.228;20.890;2022-09-09T12:58:18;56.10;;;27.58;;
42084;SDS011;27746;52.228;20.890;2022-09-09T13:00:49;59.78;;;29.40;;
42084;SDS011;27746;52.228;20.890;2022-09-09T13:03:18;58.15;;;29.83;;
42084;SDS011;27746;52.228;20.890;2022-09-09T13:05:48;55.17;;;28.70;;
42084;SDS011;27746;52.228;20.890;2022-09-09T13:08:17;59.65;;;28.92;;
42084;SDS011;27746;52.228;20.890;2022-09-09T13:10:46;55.50;;;28.35;;
42084;SDS011;27746;52.228;20.890;2022-09-09T13:13:20;54.90;;;27.75;;
42084;SDS011;27746;52.228;20.890;2022-09-09T13:15:49;62.92;;;29.05;;
42084;SDS011;27746;52.228;20.890;2022-09-09T13:18:19;60.72;;;29.52;;
42084;SDS011;27746;52.228;20.890;2022-09-09T13:20:50;53.15;;;28.75;;
42084;SDS011;27746;52.228;20.890;2022-09-09T13:23:18;56.80;;;29.45;;
42084;SDS011;27746;52.228;20.890;2022-09-09T13:25:53;60.17;;;28.35;;
42084;SDS011;27746;52.228;20.890;2022-09-09T13:28:21;54.70;;;28.10;;
42084;SDS011;27746;52.228;20.890;2022-09-09T13:30:57;56.08;;;29.77;;
42084;SDS011;27746;52.228;20.890;2022-09-09T13:33:31;61.65;;;29.13;;
42084;SDS011;27746;52.228;20.890;2022-09-09T13:36:01;49.97;;;27.80;;
42084;SDS011;27746;52.228;20.890;2022-09-09T13:38:31;56.30;;;29.85;;
42084;SDS011;27746;52.228;20.890;2022-09-09T13:41:00;56.05;;;26.60;;
42084;SDS011;27746;52.228;20.890;2022-09-09T13:43:42;58.25;;;29.65;;
42084;SDS011;27746;52.228;20.890;2022-09-09T13:46:23;59.65;;;34.13;;
42084;SDS011;27746;52.228;20.890;2022-09-09T13:48:55;54.00;;;29.73;;
42084;SDS011;27746;52.228;20.890;2022-09-09T13:51:29;55.97;;;29.38;;
42084;SDS011;27746;52.228;20.890;2022-09-09T13:54:02;54.38;;;29.45;;
42084;SDS011;27746;52.228;20.890;2022-09-09T13:56:31;58.55;;;31.48;;
42084;SDS011;27746;52.228;20.890;2022-09-09T13:58:57;52.72;;;28.23;;
42084;SDS011;27746;52.228;20.890;2022-09-09T14:01:24;63.30;;;30.38;;
42084;SDS011;27746;52.228;20.890;2022-09-09T14:03:52;61.65;;;30.05;;
42084;SDS011;27746;52.228;20.890;2022-09-09T14:06:19;57.70;;;29.70;;
42084;SDS011;27746;52.228;20.890;2022-09-09T14:08:48;58.35;;;30.10;;
42084;SDS011;27746;52.228;20.890;2022-09-09T14:11:15;58.58;;;29.40;;
42084;SDS011;27746;52.228;20.890;2022-09-09T14:13:44;61.28;;;30.33;;
42084;SDS011;27746;52.228;20.890;2022-09-09T14:16:11;59.72;;;29.08;;
42084;SDS011;27746;52.228;20.890;2022-09-09T14:18:38;58.38;;;28.98;;
42084;SDS011;27746;52.228;20.890;2022-09-09T14:21:05;61.95;;;30.02;;
42084;SDS011;27746;52.228;20.890;2022-09-09T14:23:33;62.17;;;29.20;;
42084;SDS011;27746;52.228;20.890;2022-09-09T14:26:02;60.55;;;27.35;;
42084;SDS011;27746;52.228;20.890;2022-09-09T14:28:28;59.58;;;28.80;;
42084;SDS011;27746;52.228;20.890;2022-09-09T14:30:58;54.95;;;28.05;;
42084;SDS011;27746;52.228;20.890;2022-09-09T14:33:25;59.28;;;28.98;;
42084;SDS011;27746;52.228;20.890;2022-09-09T14:35:55;60.67;;;28.52;;
42084;SDS011;27746;52.228;20.890;2022-09-09T14:38:22;59.28;;;28.52;;
42084;SDS011;27746;52.228;20.890;2022-09-09T14:40:49;54.25;;;26.75;;
42084;SDS011;27746;52.228;20.890;2022-09-09T14:43:17;57.30;;;28.88;;
42084;SDS011;27746;52.228;20.890;2022-09-09T14:45:44;56.65;;;27.38;;
42084;SDS011;27746;52.228;20.890;2022-09-09T14:48:10;55.63;;;27.25;;
42084;SDS011;27746;52.228;20.890;2022-09-09T14:50:39;57.38;;;27.00;;
42084;SDS011;27746;52.228;20.890;2022-09-09T14:53:06;54.45;;;26.58;;
42084;SDS011;27746;52.228;20.890;2022-09-09T14:55:33;67.57;;;28.02;;
42084;SDS011;27746;52.228;20.890;2022-09-09T14:58:03;55.90;;;28.50;;